Time;durP1;ratioP1;P1;durP2;ratioP2;P2;SDS_P1;SDS_P2;PMS_P1;PMS_P2;Temp;Humidity;BMP_temperature;BMP_pressure;BME280_temperature;BME280_humidity;BME280_pressure;Samples;Min_cycle;Max_cycle;Signal;HPM_P1;HPM_P2
2023/01/30 00:01:57;;;;;;;;;;;;;;;25.49;38.15;94863.22;5038670;28;7023;-61
2023/01/30 00:04:23;;;;;;;;;;;;;;;25.50;37.21;94859.22;5072046;28;7455;-61
2023/01/30 00:06:49;;;;;;;;;;;;;;;25.50;38.04;94859.22;5043002;28;7005;-61
2023/01/30 00:09:15;;;;;;;;;;;;;;;25.49;37.68;94856.97;5036077;28;8995;-61
2023/01/30 00:11:41;;;;;;;;;;;;;;;25.49;38.08;94840.47;5028679;28;9797;-61
2023/01/30 00:14:07;;;;;;;;;;;;;;;25.50;37.51;94847.47;5067178;28;9299;-61
2023/01/30 00:16:35;;;;;;;;;;;;;;;25.48;38.05;94841.69;5050215;28;7406;-61
2023/01/30 00:19:34;;;;;;;;;;;;;;;25.49;37.65;94843.94;5032200;28;7399;-61
2023/01/30 00:22:02;;;;;;;;;;;;;;;25.49;37.78;94840.47;5037789;28;8202;-62
2023/01/30 00:24:31;;;;;;;;;;;;;;;25.48;37.78;94845.22;5060960;28;7213;-61
2023/01/30 00:26:59;;;;;;;;;;;;;;;25.46;37.80;94844.19;5043072;28;9038;-61
2023/01/30 00:29:29;;;;;;;;;;;;;;;25.44;37.28;94841.97;5045975;28;7109;-61
2023/01/30 00:31:57;;;;;;;;;;;;;;;25.47;37.45;94849.19;5059149;28;9050;-61
2023/01/30 00:34:23;;;;;;;;;;;;;;;25.48;37.72;94850.72;5035761;28;8712;-61
2023/01/30 00:36:51;;;;;;;;;;;;;;;25.47;37.20;94851.97;5072182;28;8561;-65
2023/01/30 00:39:30;;;;;;;;;;;;;;;25.47;37.33;94840.94;5036632;28;7475;-66
2023/01/30 00:48:15;;;;;;;;;;;;;;;25.48;37.24;94847.97;5051410;28;9640;-66
2023/01/30 00:50:42;;;;;;;;;;;;;;;25.46;37.02;94850.47;5049954;28;7018;-66
2023/01/30 00:53:14;;;;;;;;;;;;;;;25.46;37.62;94841.44;5059442;28;8991;-66
2023/01/30 00:55:42;;;;;;;;;;;;;;;25.47;37.60;94838.19;5043247;28;7260;-66
2023/01/30 00:58:08;;;;;;;;;;;;;;;25.45;37.22;94840.69;5051455;28;8688;-66
2023/01/30 01:00:34;;;;;;;;;;;;;;;25.45;37.22;94829.66;5048580;28;7971;-66
2023/01/30 01:03:00;;;;;;;;;;;;;;;25.45;37.58;94837.94;5068516;28;8063;-65
2023/01/30 01:05:27;;;;;;;;;;;;;;;25.48;37.12;94839.69;5065005;28;7115;-65
2023/01/30 01:08:01;;;;;;;;;;;;;;;25.48;37.99;94831.44;5065718;28;7240;-66
2023/01/30 01:10:36;;;;;;;;;;;;;;;25.48;37.24;94830.69;5040650;28;7292;-66
2023/01/30 01:13:05;;;;;;;;;;;;;;;25.48;37.80;94823.19;5046903;28;7364;-66
2023/01/30 01:15:31;;;;;;;;;;;;;;;25.48;37.97;94820.44;5045498;28;7242;-65
2023/01/30 01:17:58;;;;;;;;;;;;;;;25.45;37.94;94807.66;5055310;28;7300;-65
2023/01/30 01:20:30;;;;;;;;;;;;;;;25.47;37.73;94809.91;5049509;28;7572;-66
2023/01/30 01:23:09;;;;;;;;;;;;;;;25.49;37.27;94804.66;5042506;28;7594;-66
2023/01/30 01:25:36;;;;;;;;;;;;;;;25.49;37.98;94807.41;5042073;28;7049;-66
2023/01/30 01:28:04;;;;;;;;;;;;;;;25.46;37.49;94797.38;5076140;28;8239;-66
2023/01/30 01:30:42;;;;;;;;;;;;;;;25.47;37.68;94799.63;5042736;28;9288;-66
2023/01/30 01:33:09;;;;;;;;;;;;;;;25.51;36.95;94807.66;5053567;28;7316;-66
2023/01/30 01:35:39;;;;;;;;;;;;;;;25.48;36.89;94801.16;5038939;28;7259;-66
2023/01/30 01:38:05;;;;;;;;;;;;;;;25.47;37.71;94810.66;5061488;28;7447;-66
2023/01/30 01:41:06;;;;;;;;;;;;;;;25.47;37.64;94818.91;5046098;28;9271;-66
2023/01/30 01:43:57;;;;;;;;;;;;;;;25.47;36.96;94807.88;5048041;28;8751;-66
2023/01/30 01:46:52;;;;;;;;;;;;;;;25.47;37.20;94810.66;5055239;28;7025;-66
2023/01/30 01:49:34;;;;;;;;;;;;;;;25.47;37.16;94809.91;5059002;28;9068;-66
2023/01/30 01:52:17;;;;;;;;;;;;;;;25.45;37.27;94804.16;5047368;28;7129;-66
2023/01/30 01:54:59;;;;;;;;;;;;;;;25.44;37.62;94797.91;5061192;28;9052;-66
2023/01/30 01:57:50;;;;;;;;;;;;;;;25.45;37.36;94793.16;5045331;28;9208;-65
2023/01/30 02:00:27;;;;;;;;;;;;;;;25.43;37.66;94796.38;5043474;28;9011;-65
2023/01/30 02:03:22;;;;;;;;;;;;;;;25.48;37.73;94801.16;5047233;28;9003;-66
2023/01/30 02:06:02;;;;;;;;;;;;;;;25.48;37.70;94801.16;5043715;28;9211;-66
2023/01/30 02:08:53;;;;;;;;;;;;;;;25.48;37.66;94792.13;5034273;28;7061;-66
2023/01/30 02:11:54;;;;;;;;;;;;;;;25.46;37.75;94795.38;5038194;28;7160;-66
2023/01/30 02:14:54;;;;;;;;;;;;;;;25.48;37.47;94795.63;5067608;28;9026;-65
2023/01/30 02:17:29;;;;;;;;;;;;;;;25.47;37.17;94788.63;4975764;28;8693;-66
2023/01/30 02:20:18;;;;;;;;;;;;;;;25.48;37.68;94794.88;4992201;28;9417;-65
2023/01/30 02:23:04;;;;;;;;;;;;;;;25.48;37.66;94798.38;4991957;28;7339;-66
2023/01/30 02:29:39;;;;;;;;;;;;;;;25.48;37.92;94795.63;4993298;28;8717;-66
2023/01/30 02:32:31;;;;;;;;;;;;;;;25.47;37.10;94787.88;4985386;28;8696;-66
2023/01/30 02:35:02;;;;;;;;;;;;;;;25.45;37.85;94785.59;4975763;28;7449;-65
2023/01/30 02:37:52;;;;;;;;;;;;;;;25.45;37.58;94788.38;4983737;28;9131;-61
2023/01/30 02:41:01;;;;;;;;;;;;;;;25.46;37.99;94798.13;4978917;28;8771;-61
2023/01/30 02:44:14;;;;;;;;;;;;;;;25.46;37.49;94795.38;4992417;28;9335;-62
2023/01/30 02:47:15;;;;;;;;;;;;;;;25.47;37.49;94807.88;4894223;29;9011;-61
2023/01/30 02:50:34;;;;;;;;;;;;;;;25.46;37.87;94798.13;4877364;29;9388;-61
2023/01/30 02:53:04;;;;;;;;;;;;;;;25.44;37.63;94792.38;4865542;29;7494;-62
2023/01/30 02:55:31;;;;;;;;;;;;;;;25.47;37.50;94796.88;4895173;29;9077;-61
2023/01/30 02:58:06;;;;;;;;;;;;;;;25.45;37.58;94807.66;4895194;29;7320;-61
2023/01/30 03:00:47;;;;;;;;;;;;;;;25.47;36.88;94810.66;4894107;29;7218;-62
2023/01/30 03:03:30;;;;;;;;;;;;;;;25.47;37.58;94824.41;4894851;29;7237;-61
2023/01/30 03:09:57;;;;;;;;;;;;;;;25.46;38.03;94864.25;4895368;29;7100;-61
2023/01/30 03:12:52;;;;;;;;;;;;;;;25.47;37.45;94867.75;4880525;29;9495;-61
2023/01/30 03:15:46;;;;;;;;;;;;;;;25.47;37.71;94878.75;4877849;29;7287;-62
2023/01/30 03:18:38;;;;;;;;;;;;;;;25.47;38.04;94873.25;4910057;29;8729;-62
2023/01/30 03:21:18;;;;;;;;;;;;;;;25.46;38.00;94875.25;4895958;29;7277;-63
2023/01/30 03:24:39;;;;;;;;;;;;;;;25.47;37.07;94865.72;4931866;28;9401;-62
2023/01/30 03:27:11;;;;;;;;;;;;;;;25.47;37.74;94878.75;4913498;29;9056;-62
2023/01/30 03:29:39;;;;;;;;;;;;;;;25.45;37.00;94873.00;4961660;28;7402;-62
2023/01/30 03:32:06;;;;;;;;;;;;;;;25.47;37.80;94885.00;4966332;28;7481;-62
2023/01/30 03:34:32;;;;;;;;;;;;;;;25.47;37.28;94890.50;4982437;28;7057;-62
2023/01/30 03:37:03;;;;;;;;;;;;;;;25.47;37.90;94904.28;4971016;28;7073;-62
2023/01/30 03:39:41;;;;;;;;;;;;;;;25.49;37.54;94912.06;4978867;28;7041;-62
2023/01/30 03:42:08;;;;;;;;;;;;;;;25.47;37.32;94933.84;4953015;28;8850;-62
2023/01/30 03:44:37;;;;;;;;;;;;;;;25.47;37.84;94931.81;4965010;28;7901;-62
2023/01/30 03:47:12;;;;;;;;;;;;;;;25.48;37.28;94925.06;4960479;28;9033;-60
2023/01/30 03:49:56;;;;;;;;;;;;;;;25.48;37.61;94913.31;4952517;28;9149;-62
2023/01/30 03:52:24;;;;;;;;;;;;;;;25.47;37.88;94909.78;4955611;28;7054;-62
2023/01/30 03:54:52;;;;;;;;;;;;;;;25.49;37.83;94906.56;4951680;28;9504;-62
2023/01/30 03:57:33;;;;;;;;;;;;;;;25.49;37.92;94884.53;4965238;28;7231;-62
2023/01/30 04:00:01;;;;;;;;;;;;;;;25.47;37.74;94879.50;4957794;28;8722;-62
2023/01/30 04:02:29;;;;;;;;;;;;;;;25.45;37.42;94882.00;5055502;28;10413;-62
2023/01/30 04:04:55;;;;;;;;;;;;;;;25.47;37.73;94887.03;5035917;28;7252;-62
2023/01/30 04:07:22;;;;;;;;;;;;;;;25.46;37.28;94891.03;5049563;28;7188;-62
2023/01/30 04:09:53;;;;;;;;;;;;;;;25.47;37.24;94878.75;5047545;28;9302;-62
2023/01/30 04:12:21;;;;;;;;;;;;;;;25.48;36.91;94866.50;5060362;28;8747;-62
2023/01/30 04:14:47;;;;;;;;;;;;;;;25.47;37.63;94887.75;5037804;28;7111;-62
2023/01/30 04:17:15;;;;;;;;;;;;;;;25.47;37.41;94909.06;5041516;28;7326;-62
2023/01/30 04:19:43;;;;;;;;;;;;;;;25.48;37.74;94896.78;5047310;28;9833;-62
2023/01/30 04:22:12;;;;;;;;;;;;;;;25.46;37.06;94902.03;5046491;28;7061;-62
2023/01/30 04:24:42;;;;;;;;;;;;;;;25.48;37.21;94903.03;5049958;28;7495;-62
2023/01/30 04:27:08;;;;;;;;;;;;;;;25.48;37.89;94886.53;5048642;28;8747;-62
2023/01/30 04:29:37;;;;;;;;;;;;;;;25.47;37.90;94862.25;5046191;28;7543;-62
2023/01/30 04:32:03;;;;;;;;;;;;;;;25.45;37.63;94835.19;5048409;28;8952;-62
2023/01/30 04:34:29;;;;;;;;;;;;;;;25.47;37.74;94831.94;5048462;28;7256;-62
2023/01/30 04:36:55;;;;;;;;;;;;;;;25.49;37.29;94854.22;5043436;28;7525;-62
2023/01/30 04:39:21;;;;;;;;;;;;;;;25.47;37.88;94876.75;5050816;28;9074;-62
2023/01/30 04:41:47;;;;;;;;;;;;;;;25.45;37.04;94873.00;5045803;28;7052;-62
2023/01/30 04:44:12;;;;;;;;;;;;;;;25.48;37.97;94881.00;5046837;28;8984;-62
2023/01/30 04:46:39;;;;;;;;;;;;;;;25.48;37.33;94872.75;5050354;28;7765;-62
2023/01/30 04:49:11;;;;;;;;;;;;;;;25.47;37.90;94865.00;5061223;28;9372;-62
2023/01/30 04:51:56;;;;;;;;;;;;;;;25.47;36.81;94862.97;5069637;28;7255;-62
2023/01/30 04:54:24;;;;;;;;;;;;;;;25.50;37.23;94862.00;5045595;28;9037;-62
2023/01/30 04:57:05;;;;;;;;;;;;;;;25.49;37.28;94840.47;5041042;28;7361;-62
2023/01/30 04:59:33;;;;;;;;;;;;;;;25.47;37.69;94821.66;5040541;28;7805;-62
2023/01/30 05:02:00;;;;;;;;;;;;;;;25.47;37.26;94824.41;5071098;28;7037;-62
2023/01/30 05:04:29;;;;;;;;;;;;;;;25.47;37.46;94831.94;5060327;28;9791;-62
2023/01/30 05:07:16;;;;;;;;;;;;;;;25.48;36.89;94817.66;5042215;28;9467;-62
2023/01/30 05:09:55;;;;;;;;;;;;;;;25.47;37.16;94818.91;5042708;28;7736;-62
2023/01/30 05:12:32;;;;;;;;;;;;;;;25.47;36.87;94813.41;5045429;28;7209;-62
2023/01/30 05:14:59;;;;;;;;;;;;;;;25.42;37.22;94789.38;5043554;28;7239;-62
2023/01/30 05:17:42;;;;;;;;;;;;;;;25.48;37.41;94779.13;5037667;28;7034;-62
2023/01/30 05:20:09;;;;;;;;;;;;;;;25.45;36.94;94751.84;5074676;28;7358;-62
2023/01/30 05:22:38;;;;;;;;;;;;;;;25.47;37.49;94744.56;5053317;28;8803;-62
2023/01/30 05:25:15;;;;;;;;;;;;;;;25.46;37.30;94753.31;5058280;28;7352;-62
2023/01/30 05:27:41;;;;;;;;;;;;;;;25.46;37.27;94770.59;5035483;28;9081;-63
2023/01/30 05:30:08;;;;;;;;;;;;;;;25.48;37.53;94772.84;5062330;28;7197;-63
2023/01/30 05:32:34;;;;;;;;;;;;;;;25.48;37.02;94765.34;5052852;28;8306;-62
2023/01/30 05:35:00;;;;;;;;;;;;;;;25.47;37.16;94769.34;5061847;28;7030;-63
2023/01/30 05:37:26;;;;;;;;;;;;;;;25.47;37.26;94755.56;5083608;28;9183;-63
2023/01/30 05:40:05;;;;;;;;;;;;;;;25.48;38.12;94757.09;5045559;28;7656;-63
2023/01/30 05:43:09;;;;;;;;;;;;;;;25.48;38.04;94770.84;5051257;28;7452;-62
2023/01/30 05:45:40;;;;;;;;;;;;;;;25.47;37.48;94777.59;5048447;28;9466;-63
2023/01/30 05:48:28;;;;;;;;;;;;;;;25.48;37.87;94783.88;5048753;28;7495;-63
2023/01/30 05:50:58;;;;;;;;;;;;;;;25.46;38.62;94787.13;5046499;28;9720;-62
2023/01/30 05:53:27;;;;;;;;;;;;;;;25.47;37.75;94796.16;5043341;28;9022;-63
2023/01/30 05:55:59;;;;;;;;;;;;;;;25.47;38.51;94805.13;5041075;28;9864;-62
2023/01/30 05:58:28;;;;;;;;;;;;;;;25.46;38.68;94792.63;5065636;28;7363;-63
2023/01/30 06:01:07;;;;;;;;;;;;;;;25.48;38.30;94779.13;5050513;28;8863;-62
2023/01/30 06:03:42;;;;;;;;;;;;;;;25.47;38.70;94774.84;5041968;28;7131;-62
2023/01/30 06:06:15;;;;;;;;;;;;;;;25.50;38.98;94770.34;5041029;28;7218;-62
2023/01/30 06:08:55;;;;;;;;;;;;;;;25.50;38.44;94757.31;5048138;28;9345;-62
2023/01/30 06:11:28;;;;;;;;;;;;;;;25.49;38.84;94753.06;5049263;28;8710;-62
2023/01/30 06:13:58;;;;;;;;;;;;;;;25.51;38.67;94780.88;5062267;28;7019;-63
2023/01/30 06:16:30;;;;;;;;;;;;;;;25.51;38.48;94797.41;5060909;28;9110;-63
2023/01/30 06:18:56;;;;;;;;;;;;;;;25.51;38.55;94793.88;5046307;28;7109;-63
2023/01/30 06:21:24;;;;;;;;;;;;;;;25.50;38.12;94787.63;5051173;28;8021;-62
2023/01/30 06:23:53;;;;;;;;;;;;;;;25.48;37.96;94783.88;5042248;28;7294;-62
2023/01/30 06:26:19;;;;;;;;;;;;;;;25.47;38.00;94793.38;5045473;28;7369;-62
2023/01/30 06:28:48;;;;;;;;;;;;;;;25.46;38.48;94802.91;5043481;28;8985;-62
2023/01/30 06:31:17;;;;;;;;;;;;;;;25.45;38.20;94807.66;5046393;28;9391;-62
2023/01/30 06:33:43;;;;;;;;;;;;;;;25.45;38.53;94807.66;5051072;28;7259;-62
2023/01/30 06:36:12;;;;;;;;;;;;;;;25.45;37.98;94806.91;5042922;28;8995;-62
2023/01/30 06:38:38;;;;;;;;;;;;;;;25.45;38.20;94807.66;5044190;28;8997;-62
2023/01/30 06:41:06;;;;;;;;;;;;;;;25.45;38.00;94806.91;5052009;28;7177;-62
2023/01/30 06:43:34;;;;;;;;;;;;;;;25.46;38.08;94795.38;5051782;28;7352;-63
2023/01/30 06:46:00;;;;;;;;;;;;;;;25.47;38.53;94787.88;5044520;28;7460;-62
2023/01/30 06:48:29;;;;;;;;;;;;;;;25.46;38.30;94784.38;5045991;28;8760;-62
2023/01/30 06:50:55;;;;;;;;;;;;;;;25.46;38.46;94772.59;5057761;28;7093;-63
2023/01/30 06:53:24;;;;;;;;;;;;;;;25.46;37.97;94765.09;5048012;28;8687;-63
2023/01/30 06:55:50;;;;;;;;;;;;;;;25.46;38.17;94770.59;5037994;28;8972;-62
2023/01/30 06:58:16;;;;;;;;;;;;;;;25.48;38.55;94792.13;5041768;28;7068;-57
2023/01/30 07:00:44;;;;;;;;;;;;;;;25.47;37.73;94798.91;5044921;28;8825;-57
2023/01/30 07:03:30;;;;;;;;;;;;;;;25.48;38.24;94795.63;5066159;28;7062;-57
2023/01/30 07:06:05;;;;;;;;;;;;;;;25.47;38.12;94796.16;5040781;28;9276;-57
2023/01/30 07:08:31;;;;;;;;;;;;;;;25.47;38.22;94816.16;5056794;28;6987;-57
2023/01/30 07:10:57;;;;;;;;;;;;;;;25.47;37.99;94842.97;5059079;28;7113;-57
2023/01/30 07:13:34;;;;;;;;;;;;;;;25.44;38.47;94864.00;5041177;28;7248;-57
2023/01/30 07:16:11;;;;;;;;;;;;;;;25.48;37.80;94866.50;5046496;28;6981;-57
2023/01/30 07:18:37;;;;;;;;;;;;;;;25.43;37.47;94868.72;5051668;28;7051;-57
2023/01/30 07:21:13;;;;;;;;;;;;;;;25.46;37.74;94864.25;5051264;28;9008;-57
2023/01/30 07:23:52;;;;;;;;;;;;;;;25.45;38.06;94881.28;5068145;28;9371;-57
2023/01/30 07:26:25;;;;;;;;;;;;;;;25.44;38.68;94877.75;5056991;28;9294;-57
2023/01/30 07:28:50;;;;;;;;;;;;;;;25.43;38.02;94876.25;5034875;28;7054;-57
2023/01/30 07:31:18;;;;;;;;;;;;;;;25.44;38.06;94877.75;5043292;28;8707;-57
2023/01/30 07:33:44;;;;;;;;;;;;;;;25.43;38.67;94879.75;5045959;28;7135;-57
2023/01/30 07:36:13;;;;;;;;;;;;;;;25.45;38.42;94895.78;5068108;28;7616;-57
2023/01/30 07:38:42;;;;;;;;;;;;;;;25.42;38.38;94891.28;5074288;28;7038;-57
2023/01/30 07:41:10;;;;;;;;;;;;;;;25.44;39.05;94902.53;5044659;28;7167;-57
2023/01/30 07:43:36;;;;;;;;;;;;;;;25.42;38.25;94905.03;5055656;28;9273;-57
2023/01/30 07:46:02;;;;;;;;;;;;;;;25.42;39.27;94916.78;5049048;28;6857;-57
2023/01/30 07:48:37;;;;;;;;;;;;;;;25.40;39.11;94916.50;5048935;28;9133;-57
2023/01/30 07:51:08;;;;;;;;;;;;;;;25.43;38.29;94920.31;5042946;28;7271;-57
2023/01/30 07:53:36;;;;;;;;;;;;;;;25.45;38.72;94923.31;5035654;28;7047;-57
2023/01/30 07:56:10;;;;;;;;;;;;;;;25.43;38.92;94932.06;5036290;28;9857;-57
2023/01/30 07:58:36;;;;;;;;;;;;;;;25.41;38.98;94929.03;5032053;28;7057;-57
2023/01/30 08:01:04;;;;;;;;;;;;;;;25.45;39.09;94919.81;5044576;28;6861;-57
2023/01/30 08:03:33;;;;;;;;;;;;;;;25.41;38.27;94895.22;5032498;28;7228;-57
2023/01/30 08:05:59;;;;;;;;;;;;;;;25.46;37.64;94913.81;5045925;28;7664;-57
2023/01/30 08:08:25;;;;;;;;;;;;;;;25.46;38.10;94902.03;5044070;28;9144;-57
2023/01/30 08:10:55;;;;;;;;;;;;;;;25.47;38.28;94898.78;5039931;28;7527;-57
2023/01/30 08:13:22;;;;;;;;;;;;;;;25.41;38.65;94875.97;5071172;28;7025;-57
2023/01/30 08:15:53;;;;;;;;;;;;;;;25.44;38.71;94877.75;5039552;28;7030;-57
2023/01/30 08:18:19;;;;;;;;;;;;;;;25.45;38.09;94868.22;5061538;28;7110;-57
2023/01/30 08:20:47;;;;;;;;;;;;;;;25.47;38.46;94887.03;5062947;28;7799;-57
2023/01/30 08:23:13;;;;;;;;;;;;;;;25.46;37.91;94891.03;5055423;28;8773;-66
2023/01/30 08:25:39;;;;;;;;;;;;;;;25.47;37.87;94898.03;5035270;28;8207;-66
2023/01/30 08:28:08;;;;;;;;;;;;;;;25.48;38.03;94897.53;5042324;28;9036;-66
2023/01/30 08:30:34;;;;;;;;;;;;;;;25.48;37.95;94914.06;5046868;28;9769;-66
2023/01/30 08:33:02;;;;;;;;;;;;;;;25.49;38.39;94910.03;5062014;28;9125;-66
2023/01/30 08:35:28;;;;;;;;;;;;;;;25.49;38.17;94896.28;5039901;28;9224;-66
2023/01/30 08:37:54;;;;;;;;;;;;;;;25.47;38.46;94898.78;5035666;28;7103;-66
2023/01/30 08:40:24;;;;;;;;;;;;;;;25.50;37.91;94902.53;5079465;28;8891;-66
2023/01/30 08:42:57;;;;;;;;;;;;;;;25.51;38.37;94893.03;5044308;28;6994;-66
2023/01/30 08:45:31;;;;;;;;;;;;;;;25.50;38.54;94908.81;5050000;28;7312;-66
2023/01/30 08:48:06;;;;;;;;;;;;;;;25.51;38.10;94902.06;5038229;28;8227;-66
2023/01/30 08:50:42;;;;;;;;;;;;;;;25.49;37.70;94904.53;5047396;28;7312;-66
2023/01/30 08:53:09;;;;;;;;;;;;;;;25.51;38.14;94915.84;5044991;28;7283;-66
2023/01/30 08:55:35;;;;;;;;;;;;;;;25.52;38.80;94927.59;5055933;28;8980;-66
2023/01/30 08:58:04;;;;;;;;;;;;;;;25.54;38.35;94927.84;5040525;28;9315;-66
2023/01/30 09:00:32;;;;;;;;;;;;;;;25.54;38.56;94914.81;5048507;28;7243;-66
2023/01/30 09:03:01;;;;;;;;;;;;;;;25.54;38.26;94914.81;5040184;28;7262;-65
2023/01/30 09:05:28;;;;;;;;;;;;;;;25.51;37.65;94907.56;5045803;28;8172;-65
2023/01/30 09:07:54;;;;;;;;;;;;;;;25.57;37.98;94910.31;5039586;28;9199;-65
2023/01/30 09:10:23;;;;;;;;;;;;;;;25.59;37.65;94905.06;5068602;28;9133;-66
2023/01/30 09:12:51;;;;;;;;;;;;;;;25.59;38.41;94897.56;5044348;28;8661;-66
2023/01/30 09:15:18;;;;;;;;;;;;;;;25.60;38.28;94892.81;5047701;28;9074;-66
2023/01/30 09:17:51;;;;;;;;;;;;;;;25.61;37.74;94897.81;5058111;28;7258;-66
2023/01/30 09:20:28;;;;;;;;;;;;;;;25.59;37.89;94900.31;5053348;28;7623;-65
2023/01/30 09:22:54;;;;;;;;;;;;;;;25.60;38.69;94918.34;5083310;28;7031;-66
2023/01/30 09:25:20;;;;;;;;;;;;;;;25.61;37.84;94924.59;5051890;28;7012;-66
2023/01/30 09:27:55;;;;;;;;;;;;;;;25.59;38.41;94910.56;5043856;28;9675;-66
2023/01/30 09:30:23;;;;;;;;;;;;;;;25.62;38.72;94918.59;5050172;28;9827;-66
2023/01/30 09:32:51;;;;;;;;;;;;;;;25.62;38.21;94928.88;5039421;28;7191;-66
2023/01/30 09:35:20;;;;;;;;;;;;;;;25.62;37.84;94926.84;5067161;28;7231;-66
2023/01/30 09:37:48;;;;;;;;;;;;;;;25.63;38.29;94928.38;5050081;28;9545;-66
2023/01/30 09:40:23;;;;;;;;;;;;;;;25.63;38.73;94925.63;5054368;28;7110;-66
2023/01/30 09:43:02;;;;;;;;;;;;;;;25.59;38.04;94922.34;5047552;28;9128;-66
2023/01/30 09:45:42;;;;;;;;;;;;;;;25.62;37.79;94940.63;5052613;28;9383;-66
2023/01/30 09:48:14;;;;;;;;;;;;;;;25.63;38.54;94961.44;5052571;28;7023;-66
2023/01/30 09:50:53;;;;;;;;;;;;;;;25.64;37.70;94962.94;5049037;28;7249;-66
2023/01/30 09:53:38;;;;;;;;;;;;;;;25.65;38.26;94964.44;5067111;28;7041;-66
2023/01/30 09:56:16;;;;;;;;;;;;;;;25.66;38.08;94949.41;5054312;28;7275;-66
2023/01/30 09:58:54;;;;;;;;;;;;;;;25.71;38.82;94945.91;5077922;28;7392;-67
2023/01/30 10:01:30;;;;;;;;;;;;;;;25.75;38.19;94957.44;5053024;28;7911;-66
2023/01/30 10:04:16;;;;;;;;;;;;;;;25.78;37.51;94941.91;5081150;28;7121;-66
2023/01/30 10:07:13;;;;;;;;;;;;;;;25.76;38.33;94925.88;5042800;28;7067;-66
2023/01/30 10:10:23;;;;;;;;;;;;;;;25.77;38.26;94943.19;4973720;28;8952;-66
2023/01/30 10:13:17;;;;;;;;;;;;;;;25.75;38.58;94938.13;4989015;28;7356;-66
2023/01/30 10:16:28;;;;;;;;;;;;;;;25.75;38.45;94946.41;4989480;28;7260;-66
2023/01/30 10:22:44;;;;;;;;;;;;;;;25.73;38.47;94937.16;4934589;29;7274;-66
2023/01/30 10:25:26;;;;;;;;;;;;;;;25.73;37.99;94942.66;4933080;29;6999;-66
2023/01/30 10:28:20;;;;;;;;;;;;;;;25.73;37.97;94965.44;4927510;29;7109;-66
2023/01/30 10:30:51;;;;;;;;;;;;;;;25.70;38.15;94955.44;4910952;29;9443;-65
2023/01/30 10:33:17;;;;;;;;;;;;;;;25.73;38.09;94954.41;4930327;29;9088;-66
2023/01/30 10:35:59;;;;;;;;;;;;;;;25.70;37.90;94935.38;4933482;29;8706;-67
2023/01/30 10:38:33;;;;;;;;;;;;;;;25.69;38.02;94942.91;4933291;29;7349;-66
2023/01/30 10:41:22;;;;;;;;;;;;;;;25.73;38.57;94950.94;4930728;29;7052;-67
2023/01/30 10:44:07;;;;;;;;;;;;;;;25.72;38.41;94935.63;4933566;29;7602;-67
2023/01/30 10:46:43;;;;;;;;;;;;;;;25.73;37.71;94937.88;4964637;28;7603;-66
2023/01/30 10:49:14;;;;;;;;;;;;;;;25.72;37.50;94947.41;4994630;28;7907;-66
2023/01/30 10:51:46;;;;;;;;;;;;;;;25.72;37.75;94950.19;4982659;28;7276;-66
2023/01/30 10:54:27;;;;;;;;;;;;;;;25.76;37.47;94981.00;4975110;28;6865;-66
2023/01/30 10:57:26;;;;;;;;;;;;;;;25.77;38.20;94974.25;5054905;28;7825;-66
2023/01/30 11:00:06;;;;;;;;;;;;;;;25.75;37.89;94951.19;5039182;28;9773;-66
2023/01/30 11:02:43;;;;;;;;;;;;;;;25.78;38.14;94939.16;5038823;28;7044;-66
2023/01/30 11:05:17;;;;;;;;;;;;;;;25.77;37.78;94910.88;5048527;28;7580;-66
2023/01/30 11:07:47;;;;;;;;;;;;;;;25.77;38.01;94891.56;5031944;28;7316;-66
2023/01/30 11:10:25;;;;;;;;;;;;;;;25.77;37.96;94877.03;5039593;28;9183;-66
2023/01/30 11:13:21;;;;;;;;;;;;;;;25.81;38.38;94878.31;5038124;28;8997;-66
2023/01/30 11:15:51;;;;;;;;;;;;;;;25.81;37.56;94880.31;4972234;28;9065;-66
2023/01/30 11:18:26;;;;;;;;;;;;;;;25.82;37.92;94887.28;4973953;28;7874;-66
2023/01/30 11:21:20;;;;;;;;;;;;;;;25.87;38.19;94881.81;4984595;28;9081;-67
2023/01/30 11:23:46;;;;;;;;;;;;;;;25.89;37.60;94865.53;4984104;28;8937;-66
2023/01/30 11:26:31;;;;;;;;;;;;;;;25.90;37.20;94852.50;4996593;28;7225;-67
2023/01/30 11:28:57;;;;;;;;;;;;;;;25.92;37.54;94866.53;4989373;28;8965;-66
2023/01/30 11:31:32;;;;;;;;;;;;;;;25.93;37.21;94868.00;4997067;28;9020;-66
2023/01/30 11:34:04;;;;;;;;;;;;;;;25.93;37.46;94848.72;4988462;28;7312;-66
2023/01/30 11:36:33;;;;;;;;;;;;;;;25.91;37.53;94838.22;4986417;28;9083;-66
2023/01/30 11:39:19;;;;;;;;;;;;;;;25.92;37.32;94844.47;4966813;28;7315;-66
2023/01/30 11:42:02;;;;;;;;;;;;;;;25.90;38.07;94825.66;4988956;28;8749;-66
2023/01/30 11:44:31;;;;;;;;;;;;;;;25.88;37.34;94821.94;4986972;28;7049;-66
2023/01/30 11:47:07;;;;;;;;;;;;;;;25.89;37.99;94820.66;4988643;28;7556;-66
2023/01/30 11:49:46;;;;;;;;;;;;;;;25.91;38.18;94821.66;4986343;28;9961;-66
2023/01/30 11:52:25;;;;;;;;;;;;;;;25.93;38.13;94810.91;4981732;28;8451;-66
2023/01/30 11:55:00;;;;;;;;;;;;;;;25.93;37.14;94796.34;5051923;28;7236;-65
2023/01/30 11:57:27;;;;;;;;;;;;;;;25.93;37.78;94788.09;5048299;28;9184;-66
2023/01/30 11:59:59;;;;;;;;;;;;;;;25.98;37.79;94779.81;5045524;28;7272;-66
2023/01/30 12:02:32;;;;;;;;;;;;;;;26.01;37.10;94764.28;5054561;28;8739;-66
2023/01/30 12:05:06;;;;;;;;;;;;;;;26.05;37.27;94746.25;5046747;28;7296;-66
2023/01/30 12:07:36;;;;;;;;;;;;;;;26.08;37.12;94725.16;5028196;28;7035;-66
2023/01/30 12:10:22;;;;;;;;;;;;;;;26.11;38.04;94719.44;5032508;28;9201;-66
2023/01/30 12:12:54;;;;;;;;;;;;;;;26.12;37.17;94726.44;5037537;28;7871;-66
2023/01/30 12:15:28;;;;;;;;;;;;;;;26.16;37.29;94718.63;5044393;28;7024;-66
2023/01/30 12:18:06;;;;;;;;;;;;;;;26.19;37.24;94725.16;5034186;28;7315;-66
2023/01/30 12:20:44;;;;;;;;;;;;;;;26.21;37.95;94711.59;5034749;28;7272;-66
2023/01/30 12:23:46;;;;;;;;;;;;;;;26.22;37.76;94707.59;5044876;28;6955;-66
2023/01/30 12:26:46;;;;;;;;;;;;;;;26.24;37.14;94718.13;5037301;28;9538;-67
2023/01/30 12:30:04;;;;;;;;;;;;;;;26.27;37.37;94723.38;5043092;28;7467;-66
2023/01/30 12:32:33;;;;;;;;;;;;;;;26.30;37.97;94721.59;5075295;28;9012;-66
2023/01/30 12:35:15;;;;;;;;;;;;;;;26.30;37.12;94732.63;5047344;28;8263;-66
2023/01/30 12:37:50;;;;;;;;;;;;;;;26.32;37.18;94727.38;5052733;28;7131;-67
2023/01/30 12:40:30;;;;;;;;;;;;;;;26.35;37.60;94715.31;5050093;28;8860;-67
2023/01/30 12:43:34;;;;;;;;;;;;;;;26.14;31.92;94721.16;5044309;28;9055;-66
2023/01/30 12:46:18;;;;;;;;;;;;;;;25.87;29.80;94732.25;5062729;28;9044;-67
2023/01/30 12:49:10;;;;;;;;;;;;;;;25.76;27.25;94735.75;5035486;28;7137;-66
2023/01/30 12:52:07;;;;;;;;;;;;;;;25.78;25.58;94708.47;5078388;28;7045;-62
2023/01/30 12:55:20;;;;;;;;;;;;;;;25.82;25.78;94703.44;5049832;28;7114;-62
2023/01/30 12:58:12;;;;;;;;;;;;;;;25.91;24.75;94707.91;5037400;28;9380;-62
2023/01/30 13:00:46;;;;;;;;;;;;;;;25.91;24.20;94716.19;5052374;28;9403;-62
2023/01/30 13:03:34;;;;;;;;;;;;;;;25.95;25.58;94720.19;5058529;28;7243;-62
2023/01/30 13:09:46;;;;;;;;;;;;;;;26.03;26.44;94743.22;5043672;28;7219;-62
2023/01/30 13:12:36;;;;;;;;;;;;;;;26.02;25.97;94750.00;5043419;28;6990;-62
2023/01/30 13:15:51;;;;;;;;;;;;;;;26.04;26.33;94746.72;5036084;28;7365;-62
2023/01/30 13:18:41;;;;;;;;;;;;;;;26.04;27.83;94735.69;5042834;28;9090;-62
2023/01/30 13:21:30;;;;;;;;;;;;;;;26.04;27.15;94736.47;5058170;28;7054;-62
2023/01/30 13:24:53;;;;;;;;;;;;;;;26.07;27.42;94738.22;5063300;28;7297;-62
2023/01/30 13:27:22;;;;;;;;;;;;;;;26.14;28.21;94740.44;5041047;28;9480;-62
2023/01/30 13:30:09;;;;;;;;;;;;;;;26.15;28.58;94725.44;5043530;28;9495;-62
2023/01/30 13:32:46;;;;;;;;;;;;;;;26.22;29.06;94717.88;5039651;28;7131;-62
2023/01/30 13:35:26;;;;;;;;;;;;;;;26.25;28.46;94730.66;5042256;28;9537;-62
2023/01/30 13:37:55;;;;;;;;;;;;;;;26.26;28.90;94732.16;5044092;28;7447;-57
2023/01/30 13:40:27;;;;;;;;;;;;;;;26.31;29.15;94729.38;5049318;28;7185;-57
2023/01/30 13:43:14;;;;;;;;;;;;;;;26.34;29.48;94735.91;5044204;28;7223;-57
2023/01/30 13:45:48;;;;;;;;;;;;;;;26.36;29.88;94738.91;5040315;28;9456;-58
2023/01/30 13:48:39;;;;;;;;;;;;;;;26.36;29.44;94736.88;5039325;28;7029;-57
2023/01/30 13:51:35;;;;;;;;;;;;;;;26.36;30.45;94738.91;5040067;28;9454;-57
2023/01/30 13:54:21;;;;;;;;;;;;;;;26.34;30.28;94733.88;5072244;28;9398;-58
2023/01/30 13:56:56;;;;;;;;;;;;;;;26.42;30.10;94725.81;5031273;28;7183;-57
2023/01/30 14:00:03;;;;;;;;;;;;;;;26.45;30.36;94728.31;5063715;28;8659;-57
2023/01/30 14:03:10;;;;;;;;;;;;;;;26.48;30.07;94721.78;5073961;28;7300;-57
2023/01/30 14:06:14;;;;;;;;;;;;;;;26.53;30.58;94728.53;5050557;28;9048;-57